createdAt,value
2022-12-14T00:00:54.387Z,47.60
2022-12-14T00:03:26.435Z,47.60
2022-12-14T00:05:58.419Z,46.50
2022-12-14T00:08:30.307Z,47.40
2022-12-14T00:11:02.356Z,45.50
2022-12-14T00:13:34.509Z,42.40
2022-12-14T00:16:12.049Z,45.80
2022-12-14T00:18:45.125Z,43.50
2022-12-14T00:21:16.765Z,42.40
2022-12-14T00:23:50.134Z,44.10
2022-12-14T00:26:30.979Z,40.80
2022-12-14T00:29:03.705Z,41.40
2022-12-14T00:31:36.332Z,45.90
2022-12-14T00:34:08.267Z,42.40
2022-12-14T00:36:40.054Z,43.00
2022-12-14T00:39:12.093Z,48.40
2022-12-14T00:41:44.238Z,48.60
2022-12-14T00:44:15.905Z,51.30
2022-12-14T00:46:47.687Z,51.30
2022-12-14T00:49:20.292Z,52.50
2022-12-14T00:51:52.056Z,53.70
2022-12-14T00:54:23.760Z,52.20
2022-12-14T00:56:55.490Z,54.10
2022-12-14T00:59:27.663Z,53.50
2022-12-14T01:02:01.476Z,55.70
2022-12-14T01:04:33.336Z,54.10
2022-12-14T01:07:05.143Z,40.20
2022-12-14T01:09:36.862Z,54.10
2022-12-14T01:12:09.026Z,54.20
2022-12-14T01:14:41.125Z,52.20
2022-12-14T01:17:15.042Z,52.70
2022-12-14T01:19:48.946Z,52.20
2022-12-14T01:22:21.270Z,54.20
2022-12-14T01:24:52.887Z,52.20
2022-12-14T01:27:25.015Z,49.20
2022-12-14T01:29:56.671Z,46.80
2022-12-14T01:32:28.468Z,45.40
2022-12-14T01:35:00.303Z,47.20
2022-12-14T01:37:32.355Z,45.10
2022-12-14T01:40:04.311Z,46.50
2022-12-14T01:42:37.611Z,43.20
2022-12-14T01:45:21.463Z,44.90
2022-12-14T01:47:57.342Z,41.20
2022-12-14T01:50:36.701Z,42.20
2022-12-14T01:53:13.636Z,45.00
2022-12-14T01:55:49.117Z,41.90
2022-12-14T01:58:23.315Z,41.50
2022-12-14T02:00:59.693Z,38.40
2022-12-14T02:03:35.651Z,38.80
2022-12-14T02:06:13.249Z,36.20
2022-12-14T02:08:46.680Z,36.70
2022-12-14T02:11:25.044Z,35.00
2022-12-14T02:13:56.692Z,38.00
2022-12-14T02:16:28.566Z,38.60
2022-12-14T02:19:00.240Z,36.50
2022-12-14T02:21:49.866Z,27.20
2022-12-14T02:24:47.399Z,34.90
2022-12-14T02:27:51.686Z,35.50
2022-12-14T02:30:24.421Z,35.80
2022-12-14T02:33:09.928Z,36.20
2022-12-14T02:35:47.788Z,36.70
2022-12-14T02:38:42.978Z,35.40
2022-12-14T02:41:22.736Z,36.70
2022-12-14T02:44:02.787Z,36.10
2022-12-14T02:46:44.076Z,35.80
2022-12-14T02:49:28.977Z,37.30
2022-12-14T02:52:07.399Z,38.00
2022-12-14T02:54:45.877Z,40.10
2022-12-14T02:57:25.074Z,36.90
2022-12-14T02:59:58.584Z,40.30
2022-12-14T03:02:31.843Z,39.30
2022-12-14T03:05:03.687Z,38.90
2022-12-14T03:07:41.505Z,40.70
2022-12-14T03:10:30.702Z,40.60
2022-12-14T03:13:09.181Z,34.40
2022-12-14T03:15:44.066Z,40.00
2022-12-14T03:18:22.582Z,40.70
2022-12-14T03:20:56.428Z,42.90
2022-12-14T03:23:34.444Z,40.60
2022-12-14T03:26:13.216Z,40.40
2022-12-14T03:28:47.785Z,40.40
2022-12-14T03:31:23.181Z,41.50
2022-12-14T03:33:58.093Z,41.70
2022-12-14T03:36:38.323Z,40.70
2022-12-14T03:39:18.027Z,42.20
2022-12-14T03:41:59.562Z,42.90
2022-12-14T03:44:44.731Z,43.00
2022-12-14T03:47:34.165Z,43.70
2022-12-14T03:50:11.802Z,45.30
2022-12-14T03:52:51.827Z,43.70
2022-12-14T03:55:28.314Z,44.30
2022-12-14T03:58:15.575Z,43.50
2022-12-14T04:00:55.809Z,42.90
2022-12-14T04:03:40.824Z,43.20
2022-12-14T04:06:23.763Z,42.40
2022-12-14T04:09:03.068Z,40.60
2022-12-14T04:11:58.757Z,43.90
2022-12-14T04:14:51.801Z,40.80
2022-12-14T04:17:46.802Z,43.10
2022-12-14T04:20:21.907Z,43.80
2022-12-14T04:22:58.879Z,43.10
2022-12-14T04:25:53.204Z,40.20
2022-12-14T04:28:45.799Z,41.80
2022-12-14T04:31:21.175Z,41.60
2022-12-14T04:33:59.339Z,41.90
2022-12-14T04:36:38.817Z,43.20
2022-12-14T04:39:15.173Z,41.40
2022-12-14T04:41:50.783Z,41.00
2022-12-14T04:44:25.951Z,38.90
2022-12-14T04:47:00.626Z,42.60
2022-12-14T04:49:40.749Z,41.30
2022-12-14T04:52:17.360Z,39.30
2022-12-14T04:54:54.661Z,39.50
2022-12-14T04:57:35.006Z,39.20
2022-12-14T05:00:09.101Z,39.00
2022-12-14T05:03:00.899Z,38.70
2022-12-14T05:05:39.179Z,37.40
2022-12-14T05:08:18.606Z,37.50
2022-12-14T05:11:04.736Z,35.60
2022-12-14T05:13:49.158Z,35.10
2022-12-14T05:16:22.751Z,35.70
2022-12-14T05:18:54.812Z,36.10
2022-12-14T05:21:43.922Z,37.40
2022-12-14T05:24:16.075Z,36.30
2022-12-14T05:26:47.841Z,37.70
2022-12-14T05:29:19.782Z,39.00
2022-12-14T05:31:51.772Z,36.60
2022-12-14T05:34:23.920Z,36.10
2022-12-14T05:36:55.680Z,35.60
2022-12-14T05:39:27.786Z,38.20
2022-12-14T05:42:00.815Z,37.40
2022-12-14T05:44:32.967Z,35.70
2022-12-14T05:47:04.899Z,35.60
2022-12-14T05:49:37.174Z,33.20
2022-12-14T05:52:08.964Z,35.10
2022-12-14T05:54:40.660Z,35.00
2022-12-14T05:57:12.920Z,34.80
2022-12-14T05:59:44.835Z,33.90
2022-12-14T06:02:16.724Z,33.10
2022-12-14T06:07:23.105Z,31.40
2022-12-14T06:09:59.264Z,33.10
2022-12-14T06:12:31.381Z,24.00
2022-12-14T06:15:04.370Z,34.90
2022-12-14T06:17:36.244Z,31.50
2022-12-14T06:20:09.293Z,34.90
2022-12-14T06:22:47.243Z,36.10
2022-12-14T06:25:19.592Z,34.50
2022-12-14T06:27:55.572Z,35.40
2022-12-14T06:30:28.669Z,34.30
2022-12-14T06:33:00.490Z,36.00
2022-12-14T06:35:32.238Z,35.70
2022-12-14T06:38:03.912Z,37.10
2022-12-14T06:40:35.715Z,35.70
2022-12-14T06:43:07.653Z,36.80
2022-12-14T06:45:39.680Z,37.10
2022-12-14T06:48:11.476Z,33.50
2022-12-14T06:50:43.885Z,38.80
2022-12-14T06:53:15.962Z,38.90
2022-12-14T06:55:49.317Z,37.10
2022-12-14T06:58:21.221Z,76.50
2022-12-14T07:00:53.359Z,40.70
2022-12-14T07:03:25.532Z,37.40
2022-12-14T07:06:00.179Z,36.90
2022-12-14T07:08:33.380Z,40.20
2022-12-14T07:11:07.103Z,41.20
2022-12-14T07:13:39.484Z,37.20
2022-12-14T07:16:15.424Z,38.80
2022-12-14T07:18:48.286Z,38.90
2022-12-14T07:21:21.704Z,39.90
2022-12-14T07:23:54.218Z,39.90
2022-12-14T07:26:28.112Z,39.60
2022-12-14T07:29:01.199Z,38.90
2022-12-14T07:31:33.364Z,39.50
2022-12-14T07:34:05.895Z,40.50
2022-12-14T07:39:08.786Z,38.30
2022-12-14T07:41:40.622Z,39.80
2022-12-14T07:44:15.054Z,28.40
2022-12-14T07:46:46.825Z,35.70
2022-12-14T07:49:18.711Z,38.20
2022-12-14T07:51:50.503Z,37.50
2022-12-14T07:54:22.295Z,37.80
2022-12-14T07:56:54.134Z,37.50
2022-12-14T07:59:26.608Z,39.10
2022-12-14T08:04:29.179Z,37.90
2022-12-14T08:07:03.817Z,37.00
2022-12-14T08:09:35.539Z,36.80
2022-12-14T08:12:07.395Z,37.40
2022-12-14T08:14:39.116Z,37.70
2022-12-14T08:17:10.887Z,38.50
2022-12-14T08:19:42.632Z,38.40
2022-12-14T08:22:14.962Z,39.40
2022-12-14T08:24:49.636Z,39.30
2022-12-14T08:27:21.894Z,39.60
2022-12-14T08:29:53.949Z,40.20
2022-12-14T08:32:30.965Z,35.60
2022-12-14T08:35:08.928Z,39.90
2022-12-14T08:37:45.759Z,40.70
2022-12-14T08:40:19.141Z,39.80
2022-12-14T08:42:53.396Z,40.00
2022-12-14T08:45:25.252Z,40.50
2022-12-14T08:47:59.613Z,39.80
2022-12-14T08:50:32.202Z,41.70
2022-12-14T08:53:04.062Z,39.30
2022-12-14T08:55:38.784Z,42.90
2022-12-14T08:58:11.342Z,39.60
2022-12-14T09:00:43.424Z,100.10
2022-12-14T09:03:15.602Z,43.20
2022-12-14T09:05:47.478Z,41.50
2022-12-14T09:08:19.411Z,41.70
2022-12-14T09:10:53.147Z,28.40
2022-12-14T09:13:25.098Z,39.70
2022-12-14T09:16:01.653Z,28.20
2022-12-14T09:18:34.410Z,43.00
2022-12-14T09:21:07.095Z,39.70
2022-12-14T09:26:13.953Z,45.80
2022-12-14T09:28:49.536Z,39.70
2022-12-14T09:31:23.798Z,44.60
2022-12-14T09:33:56.916Z,41.90
2022-12-14T09:36:30.138Z,44.30
2022-12-14T09:39:02.208Z,45.60
2022-12-14T09:41:50.762Z,44.60
2022-12-14T09:44:36.833Z,45.50
2022-12-14T09:47:12.651Z,47.50
2022-12-14T09:49:48.147Z,45.90
2022-12-14T09:52:24.789Z,47.60
2022-12-14T09:54:58.155Z,47.90
2022-12-14T09:57:34.534Z,46.80
2022-12-14T10:00:12.850Z,46.40
2022-12-14T10:03:02.740Z,47.20
2022-12-14T10:05:53.197Z,47.70
2022-12-14T10:08:29.520Z,49.30
2022-12-14T10:11:08.372Z,45.70
2022-12-14T10:13:48.590Z,50.10
2022-12-14T10:16:31.946Z,50.40
2022-12-14T10:19:28.755Z,49.60
2022-12-14T10:22:06.831Z,49.20
2022-12-14T10:24:43.476Z,48.00
2022-12-14T10:27:25.627Z,48.60
2022-12-14T10:30:02.408Z,47.50
2022-12-14T10:32:39.002Z,48.30
2022-12-14T10:35:18.540Z,49.80
2022-12-14T10:37:59.340Z,51.10
2022-12-14T10:40:34.705Z,51.20
2022-12-14T10:43:23.557Z,50.90
2022-12-14T10:46:02.099Z,48.40
2022-12-14T10:48:47.247Z,49.20
2022-12-14T10:51:26.763Z,48.10
2022-12-14T10:54:04.461Z,48.70
2022-12-14T10:56:40.209Z,50.90
2022-12-14T10:59:41.366Z,48.80
2022-12-14T11:02:19.825Z,48.70
2022-12-14T11:04:55.556Z,50.70
2022-12-14T11:07:39.022Z,51.30
2022-12-14T11:10:19.428Z,51.50
2022-12-14T11:13:03.628Z,48.80
2022-12-14T11:15:38.050Z,49.70
2022-12-14T11:18:32.123Z,56.00
2022-12-14T11:21:06.400Z,52.20
2022-12-14T11:23:41.482Z,51.20
2022-12-14T11:26:17.584Z,52.90
2022-12-14T11:28:53.087Z,53.10
2022-12-14T11:31:29.944Z,50.90
2022-12-14T11:34:03.454Z,54.30
2022-12-14T11:36:37.847Z,54.30
2022-12-14T11:39:22.515Z,52.20
2022-12-14T11:42:04.376Z,54.00
2022-12-14T11:44:38.458Z,54.50
2022-12-14T11:47:15.679Z,52.20
2022-12-14T11:49:49.444Z,54.20
2022-12-14T11:52:23.668Z,53.40
2022-12-14T11:55:13.787Z,52.80
2022-12-14T11:57:52.485Z,54.00
2022-12-14T12:00:29.829Z,55.90
2022-12-14T12:03:08.855Z,55.10
2022-12-14T12:05:45.422Z,54.90
2022-12-14T12:08:26.169Z,56.50
2022-12-14T12:11:02.445Z,55.40
2022-12-14T12:13:38.259Z,53.80
2022-12-14T12:16:18.371Z,184.10
2022-12-14T12:18:53.717Z,62.70
2022-12-14T12:21:29.434Z,58.60
2022-12-14T12:24:06.731Z,57.80
2022-12-14T12:26:42.574Z,57.90
2022-12-14T12:29:20.585Z,59.30
2022-12-14T12:32:01.021Z,57.90
2022-12-14T12:34:38.524Z,60.90
2022-12-14T12:37:26.360Z,54.80
2022-12-14T12:40:04.773Z,60.70
2022-12-14T12:42:44.964Z,61.50
2022-12-14T12:45:21.573Z,59.40
2022-12-14T12:48:00.385Z,60.40
2022-12-14T12:50:36.358Z,58.50
2022-12-14T12:53:12.653Z,58.10
2022-12-14T12:55:48.185Z,59.10
2022-12-14T12:58:25.278Z,59.00
2022-12-14T13:01:01.684Z,75.40
2022-12-14T13:03:38.758Z,61.30
2022-12-14T13:06:19.782Z,60.20
2022-12-14T13:08:59.054Z,55.80
2022-12-14T13:11:37.091Z,57.50
2022-12-14T13:14:18.651Z,59.20
2022-12-14T13:16:53.061Z,58.50
2022-12-14T13:22:27.092Z,58.00
2022-12-14T13:25:03.897Z,58.60
2022-12-14T13:28:16.405Z,58.40
2022-12-14T13:31:03.796Z,38.40
2022-12-14T13:33:52.121Z,56.90
2022-12-14T13:36:52.664Z,55.90
2022-12-14T13:40:13.495Z,56.90
2022-12-14T13:42:54.391Z,57.00
2022-12-14T13:45:33.485Z,56.80
2022-12-14T13:48:13.969Z,58.20
2022-12-14T13:50:57.703Z,56.70
2022-12-14T13:53:42.765Z,57.50
2022-12-14T13:56:27.791Z,58.10
2022-12-14T13:59:07.668Z,57.20
2022-12-14T14:01:57.847Z,60.60
2022-12-14T14:04:30.928Z,57.10
2022-12-14T14:07:33.661Z,87.80
2022-12-14T14:10:16.695Z,60.20
2022-12-14T14:12:48.390Z,59.00
2022-12-14T14:15:32.616Z,58.50
2022-12-14T14:18:15.898Z,60.00
2022-12-14T14:20:52.558Z,58.70
2022-12-14T14:23:38.876Z,59.20
2022-12-14T14:26:21.072Z,60.80
2022-12-14T14:29:20.425Z,58.10
2022-12-14T14:32:00.590Z,63.00
2022-12-14T14:34:41.449Z,67.60
2022-12-14T14:37:29.580Z,56.40
2022-12-14T14:40:25.979Z,58.00
2022-12-14T14:43:08.518Z,61.20
2022-12-14T14:45:45.309Z,60.70
2022-12-14T14:48:34.155Z,68.00
2022-12-14T14:51:16.176Z,62.50
2022-12-14T14:53:50.188Z,60.50
2022-12-14T14:56:39.945Z,56.20
2022-12-14T14:59:43.307Z,64.60
2022-12-14T15:02:31.836Z,59.20
2022-12-14T15:05:33.375Z,60.10
2022-12-14T15:07:59.564Z,60.60
2022-12-14T15:10:37.337Z,56.90
2022-12-14T15:13:24.013Z,59.40
2022-12-14T15:15:56.596Z,61.90
2022-12-14T15:18:30.357Z,58.40
2022-12-14T15:21:06.671Z,60.80
2022-12-14T15:23:40.805Z,59.10
2022-12-14T15:26:17.423Z,58.80
2022-12-14T15:28:58.054Z,58.90
2022-12-14T15:31:35.729Z,59.40
2022-12-14T15:34:07.842Z,61.00
2022-12-14T15:36:43.450Z,59.30
2022-12-14T15:39:39.852Z,57.70
2022-12-14T15:42:17.015Z,59.30
2022-12-14T15:44:57.023Z,61.00
2022-12-14T15:47:31.120Z,61.00
2022-12-14T15:53:12.457Z,60.60
2022-12-14T15:58:21.193Z,61.70
2022-12-14T16:00:57.517Z,61.70
2022-12-14T16:03:36.434Z,60.20
2022-12-14T16:06:10.311Z,61.90
2022-12-14T16:08:48.737Z,60.20
2022-12-14T16:11:25.891Z,56.60
2022-12-14T16:13:59.366Z,60.20
2022-12-14T16:16:31.682Z,102.50
2022-12-14T16:19:26.052Z,68.00
2022-12-14T16:22:16.852Z,57.30
2022-12-14T16:25:03.043Z,59.70
2022-12-14T16:27:39.070Z,55.20
2022-12-14T16:30:21.828Z,56.80
2022-12-14T16:33:04.469Z,55.60
2022-12-14T16:35:38.417Z,58.40
2022-12-14T16:38:13.038Z,56.10
2022-12-14T16:40:57.401Z,59.10
2022-12-14T16:43:32.897Z,57.10
2022-12-14T16:46:18.564Z,59.20
2022-12-14T16:49:21.754Z,55.90
2022-12-14T16:52:09.407Z,59.70
2022-12-14T16:54:41.553Z,58.20
2022-12-14T16:57:21.982Z,57.00
2022-12-14T17:00:01.821Z,55.30
2022-12-14T17:02:36.245Z,57.50
2022-12-14T17:05:17.727Z,55.20
2022-12-14T17:07:50.107Z,58.50
2022-12-14T17:12:58.810Z,54.20
2022-12-14T17:15:33.524Z,58.10
2022-12-14T17:18:08.265Z,56.30
2022-12-14T17:20:41.146Z,56.60
2022-12-14T17:23:18.911Z,53.20
2022-12-14T17:25:51.056Z,52.90
2022-12-14T17:28:25.504Z,57.30
2022-12-14T17:31:01.899Z,54.60
2022-12-14T17:33:34.381Z,54.10
2022-12-14T17:36:07.048Z,58.20
2022-12-14T17:41:13.701Z,58.10
2022-12-14T17:43:51.000Z,61.10
2022-12-14T17:46:29.487Z,59.10
2022-12-14T17:49:06.323Z,60.20
2022-12-14T17:51:42.135Z,57.70
2022-12-14T17:54:17.944Z,56.10
2022-12-14T17:56:49.749Z,55.70
2022-12-14T17:59:21.756Z,53.30
2022-12-14T18:01:53.848Z,53.50
2022-12-14T18:04:25.985Z,53.80
2022-12-14T18:06:57.873Z,53.30
2022-12-14T18:09:29.639Z,50.90
2022-12-14T18:12:22.612Z,51.80
2022-12-14T18:14:53.558Z,49.80
2022-12-14T18:17:25.344Z,54.50
2022-12-14T18:19:57.390Z,36.00
2022-12-14T18:22:29.380Z,53.80
2022-12-14T18:25:01.396Z,50.40
2022-12-14T18:27:33.463Z,54.80
2022-12-14T18:30:05.979Z,55.70
2022-12-14T18:32:38.265Z,53.60
2022-12-14T18:35:17.045Z,60.00
2022-12-14T18:37:49.421Z,54.00
2022-12-14T18:40:24.569Z,54.20
2022-12-14T18:42:57.051Z,59.50
2022-12-14T18:45:31.284Z,58.00
2022-12-14T18:48:03.241Z,60.80
2022-12-14T18:50:39.563Z,57.50
2022-12-14T18:53:17.390Z,58.20
2022-12-14T18:55:50.509Z,56.10
2022-12-14T18:58:24.273Z,57.80
2022-12-14T19:00:59.000Z,55.70
2022-12-14T19:03:34.327Z,60.70
2022-12-14T19:06:42.449Z,58.20
2022-12-14T19:09:00.536Z,58.70
2022-12-14T19:11:35.361Z,61.40
2022-12-14T19:14:07.231Z,60.80
2022-12-14T19:16:39.624Z,59.00
2022-12-14T19:19:11.563Z,57.40
2022-12-14T19:21:43.539Z,56.90
2022-12-14T19:24:15.551Z,60.10
2022-12-14T19:26:49.490Z,60.20
2022-12-14T19:29:21.694Z,61.30
2022-12-14T19:31:54.577Z,61.30
2022-12-14T19:34:28.273Z,62.30
2022-12-14T19:37:00.381Z,61.20
2022-12-14T19:39:32.141Z,60.70
2022-12-14T19:42:04.085Z,56.70
2022-12-14T19:44:36.877Z,57.00
2022-12-14T19:47:12.035Z,59.80
2022-12-14T19:49:44.973Z,57.70
2022-12-14T19:52:17.164Z,59.80
2022-12-14T19:54:48.882Z,61.40
2022-12-14T19:57:21.383Z,44.20
2022-12-14T19:59:57.186Z,58.40
2022-12-14T20:02:29.829Z,55.10
2022-12-14T20:05:02.581Z,57.20
2022-12-14T20:07:38.757Z,59.20
2022-12-14T20:10:13.888Z,58.60
2022-12-14T20:12:45.801Z,56.50
2022-12-14T20:15:17.805Z,53.00
2022-12-14T20:17:49.816Z,54.90
2022-12-14T20:20:23.081Z,56.30
2022-12-14T20:22:55.035Z,57.50
2022-12-14T20:25:26.954Z,55.10
2022-12-14T20:27:59.025Z,57.30
2022-12-14T20:30:31.625Z,42.10
2022-12-14T20:33:03.575Z,59.00
2022-12-14T20:35:35.901Z,53.80
2022-12-14T20:38:08.278Z,54.30
2022-12-14T20:40:40.136Z,56.60
2022-12-14T20:43:12.239Z,55.90
2022-12-14T20:45:44.965Z,56.10
2022-12-14T20:48:16.805Z,59.20
2022-12-14T20:50:49.875Z,56.00
2022-12-14T20:53:23.406Z,55.00
2022-12-14T20:55:55.163Z,54.10
2022-12-14T20:58:26.890Z,53.70
2022-12-14T21:01:05.843Z,55.70
2022-12-14T21:03:38.045Z,53.80
2022-12-14T21:06:11.842Z,55.10
2022-12-14T21:09:01.660Z,59.50
2022-12-14T21:11:51.983Z,56.90
2022-12-14T21:14:25.732Z,54.00
2022-12-14T21:16:57.974Z,56.80
2022-12-14T21:19:30.459Z,58.30
2022-12-14T21:22:02.403Z,58.40
2022-12-14T21:27:31.041Z,58.90
2022-12-14T21:30:03.386Z,58.00
2022-12-14T21:32:37.959Z,56.90
2022-12-14T21:35:10.845Z,55.80
2022-12-14T21:37:43.425Z,59.50
2022-12-14T21:40:35.835Z,59.70
2022-12-14T21:43:08.196Z,59.50
2022-12-14T21:45:44.062Z,58.20
2022-12-14T21:48:17.765Z,59.70
2022-12-14T21:50:51.357Z,60.50
2022-12-14T21:53:23.215Z,58.90
2022-12-14T21:56:15.390Z,59.00
2022-12-14T21:58:54.037Z,43.20
2022-12-14T22:01:26.693Z,60.80
2022-12-14T22:03:58.710Z,64.10
2022-12-14T22:06:30.668Z,66.50
2022-12-14T22:09:04.643Z,59.10
2022-12-14T22:11:36.777Z,62.90
2022-12-14T22:14:08.665Z,59.60
2022-12-14T22:16:41.352Z,41.80
2022-12-14T22:19:16.740Z,61.10
2022-12-14T22:21:49.591Z,59.50
2022-12-14T22:24:23.458Z,61.70
2022-12-14T22:26:55.733Z,60.40
2022-12-14T22:29:27.672Z,64.10
2022-12-14T22:32:02.666Z,46.70
2022-12-14T22:34:34.993Z,64.00
2022-12-14T22:37:08.000Z,63.10
2022-12-14T22:39:40.797Z,65.80
2022-12-14T22:42:13.753Z,65.50
2022-12-14T22:44:46.275Z,66.80
2022-12-14T22:47:21.556Z,64.40
2022-12-14T22:49:53.458Z,69.00
2022-12-14T22:52:25.263Z,70.70
2022-12-14T22:54:57.224Z,75.00
2022-12-14T22:57:30.595Z,50.20
2022-12-14T23:00:07.464Z,78.30
2022-12-14T23:02:43.084Z,75.40
2022-12-14T23:05:19.868Z,82.50
2022-12-14T23:07:53.337Z,77.90
2022-12-14T23:10:43.243Z,80.00
2022-12-14T23:13:33.333Z,82.70
2022-12-14T23:16:23.824Z,81.60
2022-12-14T23:19:13.435Z,78.20
2022-12-14T23:22:02.508Z,72.00
2022-12-14T23:24:52.540Z,76.30
2022-12-14T23:27:41.900Z,77.60
2022-12-14T23:30:32.219Z,74.40
2022-12-14T23:33:21.425Z,72.90
2022-12-14T23:36:10.833Z,74.00
2022-12-14T23:38:59.928Z,68.90
2022-12-14T23:41:49.827Z,63.40
2022-12-14T23:44:39.440Z,66.10
2022-12-14T23:47:29.093Z,68.00
2022-12-14T23:50:19.721Z,65.50
2022-12-14T23:53:09.558Z,64.30
2022-12-14T23:55:59.792Z,66.60
2022-12-14T23:58:51.817Z,68.50
